createdAt,value
2018-03-11T00:00:54.598Z,14.34
2018-03-11T00:01:58.151Z,14.31
2018-03-11T00:03:01.471Z,14.29
2018-03-11T00:04:05.007Z,14.27
2018-03-11T00:05:08.393Z,14.26
2018-03-11T00:06:11.723Z,14.24
2018-03-11T00:07:15.096Z,14.21
2018-03-11T00:08:18.479Z,14.19
2018-03-11T00:09:21.871Z,14.17
2018-03-11T00:10:25.184Z,14.15
2018-03-11T00:11:28.552Z,14.14
2018-03-11T00:12:31.891Z,14.12
2018-03-11T00:13:35.292Z,14.11
2018-03-11T00:14:38.695Z,14.10
2018-03-11T00:15:42.078Z,14.08
2018-03-11T00:16:45.528Z,14.06
2018-03-11T00:17:48.846Z,14.04
2018-03-11T00:18:52.215Z,14.03
2018-03-11T00:19:55.600Z,14.02
2018-03-11T00:20:58.942Z,14.01
2018-03-11T00:22:02.445Z,14.00
2018-03-11T00:23:05.787Z,13.97
2018-03-11T00:24:09.228Z,13.97
2018-03-11T00:25:12.881Z,13.96
2018-03-11T00:26:16.344Z,13.94
2018-03-11T00:27:19.667Z,13.93
2018-03-11T00:28:23.162Z,13.92
2018-03-11T00:29:26.569Z,13.91
2018-03-11T00:30:29.921Z,13.91
2018-03-11T00:31:33.300Z,13.90
2018-03-11T00:32:36.698Z,13.90
2018-03-11T00:33:39.987Z,13.88
2018-03-11T00:34:43.429Z,13.88
2018-03-11T00:35:46.759Z,13.87
2018-03-11T00:36:50.122Z,13.86
2018-03-11T00:37:53.480Z,13.84
2018-03-11T00:38:56.811Z,13.84
2018-03-11T00:40:00.242Z,13.83
2018-03-11T00:41:03.650Z,13.82
2018-03-11T00:42:07.003Z,13.81
2018-03-11T00:43:10.389Z,13.81
2018-03-11T00:44:13.675Z,13.79
2018-03-11T00:45:17.060Z,13.79
2018-03-11T00:46:20.428Z,13.78
2018-03-11T00:47:23.857Z,13.77
2018-03-11T00:48:27.178Z,13.76
2018-03-11T00:49:30.522Z,13.76
2018-03-11T00:50:33.848Z,13.75
2018-03-11T00:51:37.225Z,13.74
2018-03-11T00:52:41.434Z,13.73
2018-03-11T00:53:45.036Z,13.71
2018-03-11T00:54:50.067Z,13.71
2018-03-11T00:55:53.394Z,13.70
2018-03-11T00:56:56.704Z,13.69
2018-03-11T00:58:00.803Z,13.68
2018-03-11T00:59:04.148Z,13.67
2018-03-11T01:00:07.467Z,13.67
2018-03-11T01:01:10.853Z,13.66
2018-03-11T01:02:14.234Z,13.65
2018-03-11T01:03:17.620Z,13.64
2018-03-11T01:04:20.922Z,13.63
2018-03-11T01:06:33.864Z,13.60
2018-03-11T01:07:37.183Z,13.60
2018-03-11T01:08:41.188Z,13.59
2018-03-11T01:09:44.516Z,13.59
2018-03-11T01:10:48.631Z,13.58
2018-03-11T01:11:51.980Z,13.56
2018-03-11T01:12:55.317Z,13.57
2018-03-11T01:13:58.674Z,13.55
2018-03-11T01:15:02.085Z,13.55
2018-03-11T01:16:05.360Z,13.55
2018-03-11T01:17:08.676Z,13.54
2018-03-11T01:18:12.006Z,13.53
2018-03-11T01:19:15.340Z,13.53
2018-03-11T01:20:19.081Z,13.52
2018-03-11T01:21:22.467Z,13.51
2018-03-11T01:22:25.959Z,13.51
2018-03-11T01:23:29.307Z,13.50
2018-03-11T01:24:32.659Z,13.49
2018-03-11T01:25:36.022Z,13.49
2018-03-11T01:26:39.422Z,13.49
2018-03-11T01:27:42.808Z,13.48
2018-03-11T01:28:46.116Z,13.47
2018-03-11T01:29:49.466Z,13.46
2018-03-11T01:30:52.776Z,13.45
2018-03-11T01:31:56.079Z,13.45
2018-03-11T01:32:59.443Z,13.45
2018-03-11T01:34:02.756Z,13.44
2018-03-11T01:35:06.115Z,13.44
2018-03-11T01:36:09.530Z,13.42
2018-03-11T01:37:12.900Z,13.41
2018-03-11T01:38:16.233Z,13.42
2018-03-11T01:39:19.524Z,13.41
2018-03-11T01:40:22.915Z,13.41
2018-03-11T01:41:26.256Z,13.40
2018-03-11T01:42:29.587Z,13.39
2018-03-11T01:43:32.904Z,13.39
2018-03-11T01:44:36.230Z,13.38
2018-03-11T01:45:39.616Z,13.38
2018-03-11T01:46:42.948Z,13.37
2018-03-11T01:47:46.589Z,13.37
2018-03-11T01:48:49.977Z,13.36
2018-03-11T01:49:53.277Z,13.36
2018-03-11T01:50:56.637Z,13.36
2018-03-11T01:52:00.665Z,13.33
2018-03-11T01:53:11.770Z,13.33
2018-03-11T01:54:15.075Z,13.30
2018-03-11T01:55:20.019Z,13.30
2018-03-11T01:56:23.425Z,13.29
2018-03-11T01:57:26.760Z,13.29
2018-03-11T01:58:30.511Z,13.28
2018-03-11T01:59:33.845Z,13.28
2018-03-11T02:00:37.207Z,13.29
2018-03-11T02:01:40.593Z,13.27
2018-03-11T02:02:43.942Z,13.28
2018-03-11T02:03:47.249Z,13.28
2018-03-11T02:04:50.601Z,13.27
2018-03-11T02:05:53.979Z,13.27
2018-03-11T02:06:57.309Z,13.26
2018-03-11T02:08:00.615Z,13.27
2018-03-11T02:09:03.952Z,13.26
2018-03-11T02:10:07.277Z,13.25
2018-03-11T02:11:10.593Z,13.25
2018-03-11T02:12:13.927Z,13.24
2018-03-11T02:13:17.307Z,13.24
2018-03-11T02:14:20.638Z,13.23
2018-03-11T02:15:23.968Z,13.23
2018-03-11T02:16:27.284Z,13.22
2018-03-11T02:17:30.656Z,13.22
2018-03-11T02:18:34.085Z,13.22
2018-03-11T02:19:37.423Z,13.21
2018-03-11T02:20:40.785Z,13.21
2018-03-11T02:21:44.082Z,13.19
2018-03-11T02:22:47.549Z,13.19
2018-03-11T02:23:50.988Z,13.18
2018-03-11T02:24:54.379Z,13.18
2018-03-11T02:25:57.727Z,13.17
2018-03-11T02:27:01.079Z,13.17
2018-03-11T02:28:04.728Z,13.16
2018-03-11T02:29:08.021Z,13.15
2018-03-11T02:30:11.362Z,13.15
2018-03-11T02:31:14.745Z,13.14
2018-03-11T02:32:18.066Z,13.14
2018-03-11T02:33:21.417Z,13.13
2018-03-11T02:34:24.760Z,13.12
2018-03-11T02:35:28.092Z,13.12
2018-03-11T02:36:31.416Z,13.11
2018-03-11T02:37:34.820Z,13.11
2018-03-11T02:38:38.149Z,13.10
2018-03-11T02:39:41.992Z,13.09
2018-03-11T02:40:45.324Z,13.08
2018-03-11T02:41:49.868Z,13.08
2018-03-11T02:42:53.213Z,13.07
2018-03-11T02:43:56.543Z,13.06
2018-03-11T02:44:59.881Z,13.06
2018-03-11T02:46:03.267Z,13.06
2018-03-11T02:47:07.534Z,13.06
2018-03-11T02:48:10.858Z,13.06
2018-03-11T02:49:14.226Z,13.06
2018-03-11T02:50:17.566Z,13.06
2018-03-11T02:51:20.883Z,13.06
2018-03-11T02:52:24.409Z,13.05
2018-03-11T02:53:27.724Z,13.06
2018-03-11T02:54:31.087Z,13.04
2018-03-11T02:55:35.493Z,13.04
2018-03-11T02:56:38.787Z,13.04
2018-03-11T02:57:42.162Z,13.04
2018-03-11T02:58:45.547Z,13.04
2018-03-11T02:59:48.944Z,13.04
2018-03-11T03:00:52.352Z,13.04
2018-03-11T03:01:55.660Z,13.03
2018-03-11T03:02:58.980Z,13.03
2018-03-11T03:04:02.305Z,13.04
2018-03-11T03:05:05.686Z,13.03
2018-03-11T03:06:09.026Z,13.03
2018-03-11T03:07:12.339Z,13.03
2018-03-11T03:08:15.702Z,13.02
2018-03-11T03:09:19.012Z,13.02
2018-03-11T03:10:22.377Z,13.02
2018-03-11T03:11:25.716Z,13.01
2018-03-11T03:12:29.042Z,13.01
2018-03-11T03:13:32.391Z,13.00
2018-03-11T03:14:35.748Z,12.99
2018-03-11T03:15:39.124Z,12.99
2018-03-11T03:16:42.486Z,12.98
2018-03-11T03:17:46.536Z,12.98
2018-03-11T03:18:49.970Z,12.98
2018-03-11T03:19:53.349Z,12.97
2018-03-11T03:22:06.387Z,12.93
2018-03-11T03:23:09.735Z,12.94
2018-03-11T03:24:13.053Z,12.93
2018-03-11T03:25:16.800Z,12.93
2018-03-11T03:26:20.225Z,12.92
2018-03-11T03:27:23.588Z,12.91
2018-03-11T03:28:27.037Z,12.91
2018-03-11T03:29:30.337Z,12.90
2018-03-11T03:30:33.680Z,12.89
2018-03-11T03:31:37.099Z,12.89
2018-03-11T03:32:40.464Z,12.88
2018-03-11T03:33:43.824Z,12.88
2018-03-11T03:34:47.112Z,12.87
2018-03-11T03:35:50.470Z,12.86
2018-03-11T03:36:53.949Z,12.85
2018-03-11T03:37:57.269Z,12.85
2018-03-11T03:39:00.721Z,12.84
2018-03-11T03:40:04.082Z,12.84
2018-03-11T03:41:07.408Z,12.83
2018-03-11T03:42:10.808Z,12.83
2018-03-11T03:43:14.151Z,12.81
2018-03-11T03:44:17.484Z,12.80
2018-03-11T03:45:20.795Z,12.80
2018-03-11T03:46:24.113Z,12.80
2018-03-11T03:47:27.481Z,12.80
2018-03-11T03:48:30.829Z,12.79
2018-03-11T03:49:34.153Z,12.78
2018-03-11T03:50:37.539Z,12.77
2018-03-11T03:51:40.901Z,12.77
2018-03-11T03:52:44.253Z,12.76
2018-03-11T03:53:47.606Z,12.76
2018-03-11T03:54:50.945Z,12.75
2018-03-11T03:55:55.203Z,12.75
2018-03-11T03:56:58.572Z,12.74
2018-03-11T03:58:01.947Z,12.73
2018-03-11T03:59:05.263Z,12.73
2018-03-11T04:00:08.580Z,12.73
2018-03-11T04:01:11.925Z,12.73
2018-03-11T04:02:15.250Z,12.72
2018-03-11T04:03:18.622Z,12.72
2018-03-11T04:04:21.956Z,12.72
2018-03-11T04:05:25.298Z,12.71
2018-03-11T04:06:28.622Z,12.71
2018-03-11T04:07:31.937Z,12.71
2018-03-11T04:08:35.287Z,12.71
2018-03-11T04:09:38.629Z,12.71
2018-03-11T04:10:41.927Z,12.72
2018-03-11T04:11:45.240Z,12.71
2018-03-11T04:12:48.566Z,12.72
2018-03-11T04:13:51.905Z,12.72
2018-03-11T04:14:55.208Z,12.73
2018-03-11T04:15:58.529Z,12.73
2018-03-11T04:17:01.903Z,12.72
2018-03-11T04:18:05.220Z,12.72
2018-03-11T04:19:08.594Z,12.72
2018-03-11T04:20:11.928Z,12.72
2018-03-11T04:21:15.312Z,12.71
2018-03-11T04:22:18.689Z,12.71
2018-03-11T04:23:22.082Z,12.71
2018-03-11T04:24:25.416Z,12.71
2018-03-11T04:25:28.743Z,12.70
2018-03-11T04:26:32.055Z,12.71
2018-03-11T04:27:35.509Z,12.71
2018-03-11T04:28:38.816Z,12.71
2018-03-11T04:29:42.180Z,12.71
2018-03-11T04:30:45.571Z,12.71
2018-03-11T04:31:48.909Z,12.70
2018-03-11T04:32:52.332Z,12.71
2018-03-11T04:33:55.658Z,12.70
2018-03-11T04:34:59.030Z,12.71
2018-03-11T04:36:02.348Z,12.72
2018-03-11T04:37:05.711Z,12.72
2018-03-11T04:38:09.167Z,12.72
2018-03-11T04:39:12.517Z,12.72
2018-03-11T04:40:15.863Z,12.72
2018-03-11T04:41:19.177Z,12.73
2018-03-11T04:42:22.528Z,12.73
2018-03-11T04:43:25.844Z,12.73
2018-03-11T04:44:29.148Z,12.73
2018-03-11T04:45:32.572Z,12.74
2018-03-11T04:46:35.885Z,12.74
2018-03-11T04:47:39.204Z,12.74
2018-03-11T04:48:42.513Z,12.74
2018-03-11T04:49:45.900Z,12.73
2018-03-11T04:50:49.306Z,12.73
2018-03-11T04:51:52.622Z,12.73
2018-03-11T04:52:56.041Z,12.73
2018-03-11T04:53:59.345Z,12.72
2018-03-11T04:55:02.708Z,12.71
2018-03-11T04:56:06.949Z,12.71
2018-03-11T04:57:10.290Z,12.69
2018-03-11T04:58:13.600Z,12.70
2018-03-11T04:59:16.922Z,12.69
2018-03-11T05:00:20.275Z,12.68
2018-03-11T05:01:23.733Z,12.69
2018-03-11T05:02:27.058Z,12.69
2018-03-11T05:03:30.412Z,12.70
2018-03-11T05:04:33.736Z,12.72
2018-03-11T05:05:37.119Z,12.73
2018-03-11T05:06:40.520Z,12.75
2018-03-11T05:07:43.876Z,12.76
2018-03-11T05:08:47.240Z,12.79
2018-03-11T05:09:50.535Z,12.81
2018-03-11T05:10:53.849Z,12.82
2018-03-11T05:11:57.235Z,12.83
2018-03-11T05:14:10.183Z,12.82
2018-03-11T05:15:13.520Z,12.82
2018-03-11T05:16:16.878Z,12.83
2018-03-11T05:17:20.241Z,12.81
2018-03-11T05:18:23.568Z,12.80
2018-03-11T05:19:26.889Z,12.78
2018-03-11T05:20:30.229Z,12.78
2018-03-11T05:21:33.540Z,12.76
2018-03-11T05:22:36.889Z,12.76
2018-03-11T05:23:40.223Z,12.75
2018-03-11T05:24:43.540Z,12.75
2018-03-11T05:25:46.902Z,12.76
2018-03-11T05:26:50.229Z,12.75
2018-03-11T05:27:53.608Z,12.76
2018-03-11T05:28:56.931Z,12.76
2018-03-11T05:30:00.256Z,12.76
2018-03-11T05:31:03.570Z,12.76
2018-03-11T05:32:06.892Z,12.75
2018-03-11T05:33:10.312Z,12.75
2018-03-11T05:34:13.644Z,12.74
2018-03-11T05:35:17.096Z,12.73
2018-03-11T05:36:20.433Z,12.72
2018-03-11T05:37:23.768Z,12.71
2018-03-11T05:38:27.117Z,12.70
2018-03-11T05:39:30.450Z,12.69
2018-03-11T05:40:33.790Z,12.69
2018-03-11T05:41:37.124Z,12.69
2018-03-11T05:42:40.455Z,12.67
2018-03-11T05:43:43.851Z,12.67
2018-03-11T05:44:47.244Z,12.67
2018-03-11T05:45:50.548Z,12.66
2018-03-11T05:46:53.918Z,12.66
2018-03-11T05:47:57.262Z,12.66
2018-03-11T05:49:05.434Z,12.67
2018-03-11T05:50:08.752Z,12.68
2018-03-11T05:51:12.056Z,12.70
2018-03-11T05:52:16.300Z,12.72
2018-03-11T05:53:19.627Z,12.75
2018-03-11T05:54:23.931Z,12.76
2018-03-11T05:55:27.302Z,12.78
2018-03-11T05:56:31.502Z,12.79
2018-03-11T05:57:34.987Z,12.80
2018-03-11T05:58:38.296Z,12.80
2018-03-11T05:59:41.652Z,12.80
2018-03-11T06:00:44.963Z,12.81
2018-03-11T06:01:48.286Z,12.82
2018-03-11T06:02:51.596Z,12.82
2018-03-11T06:03:54.924Z,12.82
2018-03-11T06:04:58.303Z,12.82
2018-03-11T06:06:01.673Z,12.82
2018-03-11T06:07:04.972Z,12.81
2018-03-11T06:08:08.369Z,12.82
2018-03-11T06:09:11.707Z,12.83
2018-03-11T06:10:15.089Z,12.84
2018-03-11T06:11:18.396Z,12.86
2018-03-11T06:12:21.817Z,12.87
2018-03-11T06:13:25.138Z,12.88
2018-03-11T06:14:28.462Z,12.88
2018-03-11T06:15:31.791Z,12.89
2018-03-11T06:16:35.125Z,12.88
2018-03-11T06:17:38.452Z,12.88
2018-03-11T06:18:41.760Z,12.87
2018-03-11T06:19:45.124Z,12.87
2018-03-11T06:20:48.512Z,12.86
2018-03-11T06:21:51.894Z,12.86
2018-03-11T06:22:55.196Z,12.85
2018-03-11T06:23:58.551Z,12.84
2018-03-11T06:25:01.906Z,12.84
2018-03-11T06:26:05.246Z,12.84
2018-03-11T06:27:09.032Z,12.84
2018-03-11T06:28:12.342Z,12.83
2018-03-11T06:29:15.680Z,12.84
2018-03-11T06:30:19.037Z,12.84
2018-03-11T06:31:22.438Z,12.84
2018-03-11T06:32:25.936Z,12.84
2018-03-11T06:33:30.912Z,12.84
2018-03-11T06:34:34.256Z,12.84
2018-03-11T06:35:37.573Z,12.85
2018-03-11T06:36:40.967Z,12.85
2018-03-11T06:37:44.288Z,12.86
2018-03-11T06:38:47.616Z,12.87
2018-03-11T06:39:50.948Z,12.88
2018-03-11T06:40:54.376Z,12.89
2018-03-11T06:41:57.772Z,12.90
2018-03-11T06:43:01.104Z,12.90
2018-03-11T06:44:04.443Z,12.91
2018-03-11T06:45:07.907Z,12.92
2018-03-11T06:46:11.293Z,12.93
2018-03-11T06:47:14.693Z,12.94
2018-03-11T06:48:17.998Z,12.95
2018-03-11T06:49:21.339Z,12.96
2018-03-11T06:50:24.635Z,12.98
2018-03-11T06:51:27.992Z,13.00
2018-03-11T06:52:31.340Z,13.02
2018-03-11T06:53:34.677Z,13.04
2018-03-11T06:54:38.051Z,13.06
2018-03-11T06:55:41.369Z,13.07
2018-03-11T06:56:45.684Z,13.09
2018-03-11T06:57:49.051Z,13.11
2018-03-11T06:58:52.342Z,13.13
2018-03-11T06:59:55.667Z,13.15
2018-03-11T07:00:59.018Z,13.17
2018-03-11T07:02:02.337Z,13.20
2018-03-11T07:03:05.680Z,13.23
2018-03-11T07:04:09.153Z,13.25
2018-03-11T07:05:12.488Z,13.27
2018-03-11T07:06:15.823Z,13.27
2018-03-11T07:07:19.132Z,13.28
2018-03-11T07:08:22.627Z,13.29
2018-03-11T07:09:26.052Z,13.31
2018-03-11T07:10:29.370Z,13.32
2018-03-11T07:11:32.719Z,13.33
2018-03-11T07:12:36.064Z,13.33
2018-03-11T07:13:39.384Z,13.33
2018-03-11T07:14:42.714Z,13.36
2018-03-11T07:15:46.096Z,13.37
2018-03-11T07:16:49.440Z,13.38
2018-03-11T07:17:52.777Z,13.41
2018-03-11T07:18:56.253Z,13.42
2018-03-11T07:19:59.544Z,13.44
2018-03-11T07:21:02.857Z,13.46
2018-03-11T07:22:06.228Z,13.48
2018-03-11T07:23:09.579Z,13.51
2018-03-11T07:24:13.000Z,13.52
2018-03-11T07:25:16.339Z,13.54
2018-03-11T07:26:19.704Z,13.57
2018-03-11T07:27:23.249Z,13.60
2018-03-11T07:28:26.573Z,13.61
2018-03-11T07:29:30.719Z,13.64
2018-03-11T07:30:34.064Z,13.65
2018-03-11T07:31:37.531Z,13.66
2018-03-11T07:32:40.897Z,13.68
2018-03-11T07:33:44.303Z,13.69
2018-03-11T07:34:47.646Z,13.71
2018-03-11T07:35:50.997Z,13.71
2018-03-11T07:36:54.319Z,13.72
2018-03-11T07:37:57.652Z,13.73
2018-03-11T07:39:00.996Z,13.74
2018-03-11T07:40:04.400Z,13.74
2018-03-11T07:41:08.540Z,13.75
2018-03-11T07:42:11.884Z,13.75
2018-03-11T07:43:15.204Z,13.75
2018-03-11T07:44:18.533Z,13.75
2018-03-11T07:45:21.914Z,13.75
2018-03-11T07:46:25.231Z,13.74
2018-03-11T07:47:28.612Z,13.75
2018-03-11T07:48:31.927Z,13.75
2018-03-11T07:49:35.313Z,13.76
2018-03-11T07:50:38.694Z,13.76
2018-03-11T07:51:42.038Z,13.78
2018-03-11T07:52:45.332Z,13.78
2018-03-11T07:53:48.979Z,13.79
2018-03-11T07:54:52.457Z,13.80
2018-03-11T07:55:55.823Z,13.81
2018-03-11T07:57:00.015Z,13.81
2018-03-11T07:58:04.566Z,13.82
2018-03-11T07:59:07.902Z,13.83
2018-03-11T08:00:11.260Z,13.84
2018-03-11T08:01:14.602Z,13.84
2018-03-11T08:02:17.949Z,13.84
2018-03-11T08:03:21.275Z,13.85
2018-03-11T08:04:24.603Z,13.84
2018-03-11T08:05:27.984Z,13.85
2018-03-11T08:06:31.318Z,13.84
2018-03-11T08:07:34.716Z,13.84
2018-03-11T08:08:38.073Z,13.83
2018-03-11T08:09:41.400Z,13.83
2018-03-11T08:10:44.737Z,13.84
2018-03-11T08:11:48.064Z,13.85
2018-03-11T08:12:51.500Z,13.86
2018-03-11T08:13:54.841Z,13.86
2018-03-11T08:14:58.319Z,13.86
2018-03-11T08:16:01.634Z,13.86
2018-03-11T08:17:05.059Z,13.86
2018-03-11T08:18:08.372Z,13.85
2018-03-11T08:19:11.739Z,13.86
2018-03-11T08:20:15.226Z,13.86
2018-03-11T08:21:18.552Z,13.86
2018-03-11T08:22:21.916Z,13.86
2018-03-11T08:23:25.866Z,13.87
2018-03-11T08:24:29.230Z,13.86
2018-03-11T08:25:32.616Z,13.87
2018-03-11T08:26:35.967Z,13.88
2018-03-11T08:27:40.526Z,13.90
2018-03-11T08:28:43.907Z,13.90
2018-03-11T08:29:47.200Z,13.91
2018-03-11T08:30:50.569Z,13.92
2018-03-11T08:31:55.701Z,13.93
2018-03-11T08:32:59.087Z,13.94
2018-03-11T08:34:02.436Z,13.95
2018-03-11T08:35:05.768Z,13.95
2018-03-11T08:36:09.116Z,13.96
2018-03-11T08:37:12.445Z,13.96
2018-03-11T08:38:15.819Z,13.96
2018-03-11T08:39:19.252Z,13.98
2018-03-11T08:40:22.576Z,13.98
2018-03-11T08:41:25.916Z,13.97
2018-03-11T08:42:29.302Z,13.98
2018-03-11T08:43:32.899Z,13.99
2018-03-11T08:44:41.296Z,14.00
2018-03-11T08:45:45.195Z,14.00
2018-03-11T08:46:48.560Z,14.02
2018-03-11T08:47:51.918Z,14.03
2018-03-11T08:48:55.382Z,14.04
2018-03-11T08:49:58.696Z,14.05
2018-03-11T08:51:02.021Z,14.05
2018-03-11T08:52:05.402Z,14.06
2018-03-11T08:53:08.764Z,14.07
2018-03-11T08:54:12.157Z,14.08
2018-03-11T08:55:15.468Z,14.09
2018-03-11T08:56:18.853Z,14.10
2018-03-11T08:57:22.984Z,14.12
2018-03-11T08:58:26.923Z,14.12
2018-03-11T08:59:30.293Z,14.13
2018-03-11T09:00:33.611Z,14.14
2018-03-11T09:01:37.030Z,14.15
2018-03-11T09:02:40.451Z,14.16
2018-03-11T09:03:43.778Z,14.15
2018-03-11T09:04:47.115Z,14.16
2018-03-11T09:05:50.448Z,14.15
2018-03-11T09:06:53.776Z,14.16
2018-03-11T09:07:57.256Z,14.16
2018-03-11T09:09:00.577Z,14.17
2018-03-11T09:10:03.960Z,14.19
2018-03-11T09:11:07.268Z,14.20
2018-03-11T09:12:10.650Z,14.23
2018-03-11T09:13:14.012Z,14.26
2018-03-11T09:14:17.375Z,14.28
2018-03-11T09:15:20.855Z,14.30
2018-03-11T09:16:24.209Z,14.31
2018-03-11T09:17:27.616Z,14.32
2018-03-11T09:18:30.935Z,14.34
2018-03-11T09:19:34.262Z,14.35
2018-03-11T09:20:37.726Z,14.37
2018-03-11T09:21:41.177Z,14.38
2018-03-11T09:22:44.560Z,14.39
2018-03-11T09:23:47.913Z,14.40
2018-03-11T09:24:51.259Z,14.41
2018-03-11T09:25:54.683Z,14.40
2018-03-11T09:26:58.077Z,14.41
2018-03-11T09:28:01.428Z,14.41
2018-03-11T09:29:05.007Z,14.42
2018-03-11T09:30:08.337Z,14.43
2018-03-11T09:31:11.673Z,14.44
2018-03-11T09:32:14.996Z,14.46
2018-03-11T09:33:18.380Z,14.48
2018-03-11T09:34:21.816Z,14.51
2018-03-11T09:35:25.167Z,14.54
2018-03-11T09:36:28.506Z,14.57
2018-03-11T09:37:31.872Z,14.59
2018-03-11T09:38:35.259Z,14.62
2018-03-11T09:39:38.645Z,14.66
2018-03-11T09:40:41.959Z,14.69
2018-03-11T09:41:45.337Z,14.73
2018-03-11T09:42:48.655Z,14.76
2018-03-11T09:43:52.021Z,14.78
2018-03-11T09:44:55.371Z,14.81
2018-03-11T09:45:58.676Z,14.84
2018-03-11T09:47:02.039Z,14.85
2018-03-11T09:48:05.590Z,14.87
2018-03-11T09:49:08.895Z,14.90
2018-03-11T09:50:12.251Z,14.91
2018-03-11T09:51:15.636Z,14.93
2018-03-11T09:52:18.959Z,14.94
2018-03-11T09:53:22.268Z,14.95
2018-03-11T09:54:25.681Z,14.95
2018-03-11T09:55:28.998Z,14.96
2018-03-11T09:56:32.366Z,14.95
2018-03-11T09:57:37.104Z,14.95
2018-03-11T09:58:40.515Z,14.95
2018-03-11T09:59:43.795Z,14.95
2018-03-11T10:00:47.175Z,14.95
2018-03-11T10:01:50.483Z,14.96
2018-03-11T10:02:53.927Z,14.95
2018-03-11T10:03:57.316Z,14.95
2018-03-11T10:05:00.747Z,14.96
2018-03-11T10:06:04.082Z,14.97
2018-03-11T10:07:07.503Z,14.99
2018-03-11T10:08:10.863Z,15.01
2018-03-11T10:09:14.191Z,15.03
2018-03-11T10:10:17.571Z,15.05
2018-03-11T10:11:20.976Z,15.08
2018-03-11T10:12:24.573Z,15.11
2018-03-11T10:13:28.008Z,15.15
2018-03-11T10:14:31.365Z,15.18
2018-03-11T10:15:34.702Z,15.21
2018-03-11T10:16:39.038Z,15.25
2018-03-11T10:17:42.462Z,15.29
2018-03-11T10:18:45.888Z,15.32
2018-03-11T10:19:49.237Z,15.35
2018-03-11T10:20:52.618Z,15.38
2018-03-11T10:21:56.069Z,15.41
2018-03-11T10:22:59.433Z,15.44
2018-03-11T10:24:02.837Z,15.45
2018-03-11T10:25:06.149Z,15.48
2018-03-11T10:26:09.536Z,15.50
2018-03-11T10:27:12.835Z,15.51
2018-03-11T10:28:16.180Z,15.52
2018-03-11T10:29:19.541Z,15.54
2018-03-11T10:30:22.886Z,15.54
2018-03-11T10:31:26.358Z,15.56
2018-03-11T10:32:29.696Z,15.56
2018-03-11T10:33:33.034Z,15.57
2018-03-11T10:34:37.397Z,15.58
2018-03-11T10:35:40.757Z,15.59
2018-03-11T10:36:44.141Z,15.60
2018-03-11T10:37:47.579Z,15.61
2018-03-11T10:38:50.977Z,15.63
2018-03-11T10:39:54.444Z,15.64
2018-03-11T10:40:57.809Z,15.67
2018-03-11T10:42:01.204Z,15.68
2018-03-11T10:43:04.566Z,15.69
2018-03-11T10:44:07.906Z,15.69
2018-03-11T10:45:11.295Z,15.70
2018-03-11T10:46:15.194Z,15.71
2018-03-11T10:47:19.058Z,15.73
2018-03-11T10:48:22.560Z,15.74
2018-03-11T10:49:25.857Z,15.77
2018-03-11T10:50:29.219Z,15.80
2018-03-11T10:51:32.578Z,15.84
2018-03-11T10:52:35.901Z,15.87
2018-03-11T10:53:39.245Z,15.91
2018-03-11T10:54:42.567Z,15.95
2018-03-11T10:55:45.956Z,15.99
2018-03-11T10:56:49.378Z,16.05
2018-03-11T10:57:53.593Z,16.09
2018-03-11T10:58:56.988Z,16.13
2018-03-11T11:00:00.354Z,16.17
2018-03-11T11:01:09.287Z,16.20
2018-03-11T11:02:22.141Z,16.22
2018-03-11T11:03:28.380Z,16.23
2018-03-11T11:06:02.996Z,16.24
2018-03-11T11:07:06.363Z,16.27
2018-03-11T11:08:09.701Z,16.30
2018-03-11T11:09:13.052Z,16.34
2018-03-11T11:10:16.398Z,16.36
2018-03-11T11:11:19.692Z,16.40
2018-03-11T11:12:23.066Z,16.44
2018-03-11T11:13:26.433Z,16.47
2018-03-11T11:14:29.740Z,16.50
2018-03-11T11:15:33.059Z,16.51
2018-03-11T11:16:36.363Z,16.52
2018-03-11T11:17:39.691Z,16.54
2018-03-11T11:18:43.069Z,16.57
2018-03-11T11:19:46.364Z,16.58
2018-03-11T11:20:49.716Z,16.58
2018-03-11T11:21:53.095Z,16.60
2018-03-11T11:22:56.448Z,16.62
2018-03-11T11:23:59.814Z,16.63
2018-03-11T11:25:03.149Z,16.66
2018-03-11T11:26:06.502Z,16.68
2018-03-11T11:27:09.876Z,16.68
2018-03-11T11:28:13.210Z,16.69
2018-03-11T11:29:16.529Z,16.70
2018-03-11T11:30:19.880Z,16.71
2018-03-11T11:31:23.892Z,16.72
2018-03-11T11:32:27.267Z,16.71
2018-03-11T11:33:30.637Z,16.72
2018-03-11T11:34:34.071Z,16.73
2018-03-11T11:35:37.469Z,16.73
2018-03-11T11:36:40.911Z,16.74
2018-03-11T11:37:44.217Z,16.74
2018-03-11T11:38:50.428Z,16.75
2018-03-11T11:39:54.509Z,16.74
2018-03-11T11:40:57.809Z,16.76
2018-03-11T11:42:01.099Z,16.76
2018-03-11T11:43:04.403Z,16.77
2018-03-11T11:44:07.743Z,16.77
2018-03-11T11:45:11.070Z,16.79
2018-03-11T11:46:16.153Z,16.81
2018-03-11T11:47:19.455Z,16.82
2018-03-11T11:48:22.879Z,16.84
2018-03-11T11:49:26.229Z,16.86
2018-03-11T11:50:29.551Z,16.88
2018-03-11T11:51:33.787Z,16.90
2018-03-11T11:52:37.115Z,16.92
2018-03-11T11:53:40.467Z,16.93
2018-03-11T11:54:44.527Z,16.96
2018-03-11T11:55:47.838Z,16.98
2018-03-11T11:56:51.139Z,16.99
2018-03-11T11:57:55.336Z,17.00
2018-03-11T11:58:58.702Z,17.01
2018-03-11T12:00:02.094Z,17.00
2018-03-11T12:01:05.527Z,17.00
2018-03-11T12:02:08.843Z,17.00
2018-03-11T12:03:12.236Z,17.00
2018-03-11T12:04:15.548Z,17.01
2018-03-11T12:05:18.894Z,17.01
2018-03-11T12:06:22.180Z,17.01
2018-03-11T12:07:25.500Z,17.02
2018-03-11T12:08:28.889Z,17.02
2018-03-11T12:09:32.218Z,17.03
2018-03-11T12:10:35.558Z,17.04
2018-03-11T12:11:38.906Z,17.04
2018-03-11T12:12:42.278Z,17.06
2018-03-11T12:13:45.562Z,17.07
2018-03-11T12:14:48.934Z,17.08
2018-03-11T12:15:52.257Z,17.09
2018-03-11T12:16:55.636Z,17.10
2018-03-11T12:17:58.932Z,17.10
2018-03-11T12:19:02.248Z,17.11
2018-03-11T12:20:05.556Z,17.12
2018-03-11T12:21:08.981Z,17.12
2018-03-11T12:22:12.304Z,17.12
2018-03-11T12:23:15.672Z,17.13
2018-03-11T12:24:19.006Z,17.13
2018-03-11T12:25:22.335Z,17.13
2018-03-11T12:26:25.630Z,17.14
2018-03-11T12:27:28.925Z,17.15
2018-03-11T12:28:32.309Z,17.17
2018-03-11T12:29:35.629Z,17.16
2018-03-11T12:30:38.932Z,17.17
2018-03-11T12:31:42.292Z,17.16
2018-03-11T12:32:45.635Z,17.17
2018-03-11T12:33:48.947Z,17.17
2018-03-11T12:34:52.282Z,17.17
2018-03-11T12:35:55.608Z,17.18
2018-03-11T12:36:58.935Z,17.20
2018-03-11T12:38:02.349Z,17.20
2018-03-11T12:39:05.683Z,17.22
2018-03-11T12:40:09.125Z,17.23
2018-03-11T12:41:12.505Z,17.24
2018-03-11T12:42:15.869Z,17.25
2018-03-11T12:43:19.183Z,17.24
2018-03-11T12:44:22.509Z,17.25
2018-03-11T12:45:25.849Z,17.25
2018-03-11T12:46:29.205Z,17.28
2018-03-11T12:47:33.329Z,17.30
2018-03-11T12:48:36.727Z,17.32
2018-03-11T12:49:40.112Z,17.33
2018-03-11T12:50:43.451Z,17.35
2018-03-11T12:51:46.773Z,17.36
2018-03-11T12:52:50.123Z,17.38
2018-03-11T12:53:54.281Z,17.39
2018-03-11T12:54:57.749Z,17.38
2018-03-11T12:56:01.037Z,17.38
2018-03-11T12:57:04.376Z,17.38
2018-03-11T12:58:08.679Z,17.39
2018-03-11T12:59:11.981Z,17.39
2018-03-11T13:00:15.301Z,17.39
2018-03-11T13:01:18.594Z,17.40
2018-03-11T13:02:22.774Z,17.41
2018-03-11T13:03:26.100Z,17.42
2018-03-11T13:04:29.408Z,17.42
2018-03-11T13:05:32.726Z,17.43
2018-03-11T13:06:36.642Z,17.43
2018-03-11T13:07:40.430Z,17.43
2018-03-11T13:08:43.856Z,17.43
2018-03-11T13:09:47.311Z,17.42
2018-03-11T13:10:50.623Z,17.42
2018-03-11T13:11:53.942Z,17.42
2018-03-11T13:12:57.284Z,17.41
2018-03-11T13:14:00.615Z,17.42
2018-03-11T13:15:03.911Z,17.43
2018-03-11T13:16:07.283Z,17.43
2018-03-11T13:17:10.813Z,17.44
2018-03-11T13:18:14.173Z,17.43
2018-03-11T13:19:17.709Z,17.44
2018-03-11T13:20:32.818Z,17.44
2018-03-11T13:21:36.154Z,17.42
2018-03-11T13:22:39.527Z,17.43
2018-03-11T13:23:42.981Z,17.44
2018-03-11T13:24:46.396Z,17.43
2018-03-11T13:25:49.771Z,17.44
2018-03-11T13:26:53.084Z,17.45
2018-03-11T13:28:08.095Z,17.46
2018-03-11T13:29:11.472Z,17.44
2018-03-11T13:30:14.807Z,17.44
2018-03-11T13:31:18.139Z,17.44
2018-03-11T13:32:33.411Z,17.45
2018-03-11T13:33:48.490Z,17.44
2018-03-11T13:34:51.843Z,17.43
2018-03-11T13:35:55.202Z,17.45
2018-03-11T13:36:58.508Z,17.45
2018-03-11T13:38:13.620Z,17.46
2018-03-11T13:39:28.788Z,17.46
2018-03-11T13:40:51.560Z,17.44
2018-03-11T13:41:54.940Z,17.43
2018-03-11T13:42:58.342Z,17.45
2018-03-11T13:44:01.683Z,17.46